Terminal Aerodrome Forecast
Issued by NWS Grand Forks, ND

Home | Current Version | Previous Version | Graphics & Text | Print | Product List | Glossary On
Versions: 1 2 3 4 5 6 7 8 9 10 11 12 13 14 15 16 17 18 19 20 21 22
000
FTUS43 KFGF 132321
TAFFAR
TAF
KFAR 132321Z 1400/1424 09007KT P6SM -RA OVC035
      TEMPO 1400/1401 2SM RA BR OVC020
     FM140300 07006KT P6SM OVC035
     FM140600 07005KT P6SM BKN025
     FM141800 05006KT P6SM BKN040=

USA.gov is the U.S. government's official web portal to all federal, state and local government web resources and services.